createdAt,value
2019-04-07T00:00:09.507Z,43.73
2019-04-07T00:02:38.581Z,39.77
2019-04-07T00:05:13.624Z,37.00
2019-04-07T00:07:38.327Z,36.70
2019-04-07T00:10:10.152Z,34.03
2019-04-07T00:12:38.937Z,34.43
2019-04-07T00:15:08.198Z,30.90
2019-04-07T00:17:37.608Z,32.73
2019-04-07T00:20:07.321Z,33.57
2019-04-07T00:22:36.758Z,32.03
2019-04-07T00:25:06.078Z,32.47
2019-04-07T00:27:34.789Z,34.90
2019-04-07T00:30:04.082Z,32.13
2019-04-07T00:32:32.825Z,31.00
2019-04-07T00:35:01.595Z,34.13
2019-04-07T00:37:31.038Z,31.53
2019-04-07T00:39:59.938Z,33.33
2019-04-07T00:42:29.183Z,38.43
2019-04-07T00:44:58.636Z,31.80
2019-04-07T00:47:27.529Z,33.00
2019-04-07T00:49:57.602Z,33.47
2019-04-07T00:52:26.439Z,32.30
2019-04-07T00:54:55.564Z,34.43
2019-04-07T00:57:25.360Z,33.07
2019-04-07T00:59:54.341Z,27.30
2019-04-07T01:02:23.254Z,32.30
2019-04-07T01:04:51.987Z,34.57
2019-04-07T01:07:20.802Z,41.40
2019-04-07T01:09:49.536Z,37.20
2019-04-07T01:12:18.303Z,40.47
2019-04-07T01:14:47.064Z,38.43
2019-04-07T01:17:16.414Z,48.93
2019-04-07T01:19:45.466Z,54.63
2019-04-07T01:22:14.487Z,61.07
2019-04-07T01:24:43.255Z,57.10
2019-04-07T01:27:12.531Z,43.97
2019-04-07T01:29:41.898Z,42.57
2019-04-07T01:32:11.282Z,39.60
2019-04-07T01:34:40.441Z,38.20
2019-04-07T01:37:09.788Z,37.10
2019-04-07T01:39:39.439Z,37.90
2019-04-07T01:42:10.096Z,35.73
2019-04-07T01:44:40.931Z,40.77
2019-04-07T01:47:20.964Z,37.83
2019-04-07T01:49:55.636Z,41.37
2019-04-07T01:52:28.553Z,37.20
2019-04-07T01:54:59.027Z,40.73
2019-04-07T01:57:38.682Z,40.20
2019-04-07T02:00:25.868Z,48.37
2019-04-07T02:02:59.975Z,49.37
2019-04-07T02:05:36.530Z,42.03
2019-04-07T02:08:07.766Z,44.83
2019-04-07T02:10:44.581Z,45.33
2019-04-07T02:13:33.895Z,44.33
2019-04-07T02:16:06.795Z,47.60
2019-04-07T02:18:52.269Z,45.77
2019-04-07T02:21:25.598Z,46.13
2019-04-07T02:24:11.466Z,47.00
2019-04-07T02:26:58.635Z,47.60
2019-04-07T02:29:32.445Z,46.97
2019-04-07T02:32:21.500Z,56.27
2019-04-07T02:35:08.885Z,54.83
2019-04-07T02:37:44.756Z,53.73
2019-04-07T02:40:31.720Z,47.00
2019-04-07T02:43:03.021Z,52.63
2019-04-07T02:45:34.596Z,42.73
2019-04-07T02:48:14.480Z,48.73
2019-04-07T02:50:47.875Z,44.87
2019-04-07T02:53:30.878Z,44.67
2019-04-07T02:56:08.081Z,44.37
2019-04-07T02:58:54.956Z,43.00
2019-04-07T03:01:26.485Z,54.13
2019-04-07T03:03:57.801Z,51.97
2019-04-07T03:06:49.741Z,50.73
2019-04-07T03:09:28.923Z,51.77
2019-04-07T03:12:03.987Z,57.97
2019-04-07T03:14:34.449Z,50.73
2019-04-07T03:17:05.572Z,62.40
2019-04-07T03:19:37.284Z,59.43
2019-04-07T03:22:13.373Z,55.30
2019-04-07T03:24:46.843Z,53.60
2019-04-07T03:27:24.002Z,51.30
2019-04-07T03:29:55.366Z,55.53
2019-04-07T03:32:33.786Z,51.23
2019-04-07T03:35:15.033Z,48.07
2019-04-07T03:37:57.232Z,48.57
2019-04-07T03:40:43.974Z,46.27
2019-04-07T03:43:17.686Z,48.53
2019-04-07T03:45:48.328Z,49.43
2019-04-07T03:48:33.769Z,47.93
2019-04-07T03:51:13.074Z,46.37
2019-04-07T03:53:59.418Z,43.43
2019-04-07T03:56:46.370Z,44.57
2019-04-07T03:59:33.348Z,42.90
2019-04-07T04:02:20.478Z,46.67
2019-04-07T04:04:57.562Z,49.93
2019-04-07T04:07:40.493Z,51.07
2019-04-07T04:10:11.444Z,58.90
2019-04-07T04:12:45.625Z,51.53
2019-04-07T04:15:18.707Z,60.40
2019-04-07T04:17:48.123Z,55.07
2019-04-07T04:20:17.127Z,48.23
2019-04-07T04:22:46.487Z,57.97
2019-04-07T04:25:15.463Z,54.53
2019-04-07T04:27:44.340Z,52.80
2019-04-07T04:30:13.461Z,54.13
2019-04-07T04:32:42.186Z,57.47
2019-04-07T04:35:11.161Z,64.67
2019-04-07T04:37:47.595Z,68.57
2019-04-07T04:40:10.803Z,74.83
2019-04-07T04:42:39.762Z,81.13
2019-04-07T04:45:09.025Z,86.20
2019-04-07T04:47:39.169Z,81.43
2019-04-07T04:50:09.700Z,83.27
2019-04-07T04:52:38.816Z,75.07
2019-04-07T04:55:07.842Z,71.97
2019-04-07T04:57:36.729Z,71.10
2019-04-07T05:00:08.827Z,63.23
2019-04-07T05:02:38.224Z,71.00
2019-04-07T05:05:09.453Z,61.33
2019-04-07T05:07:50.396Z,66.77
2019-04-07T05:10:10.059Z,60.83
2019-04-07T05:12:39.127Z,63.93
2019-04-07T05:15:08.725Z,59.40
2019-04-07T05:17:38.065Z,63.87
2019-04-07T05:20:08.054Z,75.60
2019-04-07T05:22:36.914Z,75.87
2019-04-07T05:25:07.128Z,69.83
2019-04-07T05:27:41.793Z,72.30
2019-04-07T05:30:12.351Z,65.60
2019-04-07T05:32:41.744Z,71.17
2019-04-07T05:35:10.682Z,65.63
2019-04-07T05:37:39.394Z,68.97
2019-04-07T05:40:09.092Z,65.37
2019-04-07T05:42:38.014Z,62.07
2019-04-07T05:45:07.450Z,61.27
2019-04-07T05:47:36.538Z,61.97
2019-04-07T05:50:06.969Z,62.67
2019-04-07T05:52:39.398Z,59.97
2019-04-07T05:55:07.726Z,58.87
2019-04-07T05:57:36.586Z,56.80
2019-04-07T06:00:09.214Z,57.23
2019-04-07T06:02:38.936Z,52.87
2019-04-07T06:05:07.917Z,58.83
2019-04-07T06:07:37.102Z,56.30
2019-04-07T06:10:07.986Z,51.07
2019-04-07T06:12:39.318Z,54.93
2019-04-07T06:15:07.564Z,52.20
2019-04-07T06:17:36.754Z,51.80
2019-04-07T06:20:12.139Z,44.87
2019-04-07T06:22:38.033Z,48.83
2019-04-07T06:25:09.505Z,46.63
2019-04-07T06:27:38.675Z,45.27
2019-04-07T06:30:10.846Z,48.40
2019-04-07T06:32:40.538Z,44.70
2019-04-07T06:35:12.858Z,44.40
2019-04-07T06:37:40.705Z,45.53
2019-04-07T06:40:10.000Z,48.30
2019-04-07T06:42:39.032Z,45.97
2019-04-07T06:45:11.861Z,44.90
2019-04-07T06:47:55.202Z,45.10
2019-04-07T06:50:25.877Z,44.57
2019-04-07T06:53:17.889Z,39.77
2019-04-07T06:56:01.340Z,38.70
2019-04-07T06:58:41.609Z,40.30
2019-04-07T07:01:11.100Z,37.93
2019-04-07T07:03:51.381Z,37.97
2019-04-07T07:06:25.176Z,36.50
2019-04-07T07:09:13.778Z,36.93
2019-04-07T07:11:56.140Z,32.17
2019-04-07T07:14:44.920Z,36.57
2019-04-07T07:17:17.001Z,33.97
2019-04-07T07:19:49.835Z,35.73
2019-04-07T07:22:26.964Z,34.03
2019-04-07T07:24:58.374Z,36.83
2019-04-07T07:27:26.220Z,36.23
2019-04-07T07:29:55.521Z,36.70
2019-04-07T07:32:25.010Z,35.07
2019-04-07T07:34:54.179Z,34.75
2019-04-07T07:37:25.297Z,35.28
2019-04-07T07:39:54.292Z,32.08
2019-04-07T07:42:24.435Z,32.80
2019-04-07T07:44:53.579Z,34.98
2019-04-07T07:47:23.014Z,32.17
2019-04-07T07:49:52.028Z,35.30
2019-04-07T07:52:21.838Z,32.25
2019-04-07T07:54:50.939Z,33.50
2019-04-07T07:57:23.422Z,36.08
2019-04-07T07:59:50.953Z,31.85
2019-04-07T08:02:20.752Z,35.73
2019-04-07T08:04:50.159Z,34.70
2019-04-07T08:07:19.377Z,33.60
2019-04-07T08:09:48.293Z,32.25
2019-04-07T08:12:17.364Z,29.27
2019-04-07T08:14:50.265Z,29.75
2019-04-07T08:17:17.305Z,29.35
2019-04-07T08:19:46.649Z,29.80
2019-04-07T08:22:26.641Z,28.42
2019-04-07T08:24:49.587Z,24.50
2019-04-07T08:27:16.385Z,26.10
2019-04-07T08:29:46.328Z,26.75
2019-04-07T08:32:15.149Z,24.92
2019-04-07T08:34:44.758Z,28.57
2019-04-07T08:37:15.174Z,27.05
2019-04-07T08:39:44.396Z,26.85
2019-04-07T08:42:17.503Z,28.57
2019-04-07T08:44:44.116Z,27.65
2019-04-07T08:47:18.862Z,28.07
2019-04-07T08:49:43.604Z,31.02
2019-04-07T08:52:12.800Z,29.25
2019-04-07T08:54:42.160Z,26.17
2019-04-07T08:57:11.031Z,28.12
2019-04-07T08:59:42.460Z,28.67
2019-04-07T09:02:10.162Z,33.38
2019-04-07T09:04:38.944Z,31.00
2019-04-07T09:07:08.016Z,31.65
2019-04-07T09:09:40.400Z,36.00
2019-04-07T09:12:08.129Z,31.30
2019-04-07T09:14:39.336Z,32.40
2019-04-07T09:17:09.447Z,31.97
2019-04-07T09:19:49.556Z,30.08
2019-04-07T09:22:35.200Z,31.12
2019-04-07T09:25:19.367Z,33.65
2019-04-07T09:27:52.681Z,32.58
2019-04-07T09:30:23.652Z,34.43
2019-04-07T09:32:54.588Z,30.77
2019-04-07T09:35:34.150Z,31.70
2019-04-07T09:38:14.359Z,30.05
2019-04-07T09:40:53.545Z,30.85
2019-04-07T09:43:40.392Z,37.25
2019-04-07T09:46:13.728Z,33.67
2019-04-07T09:49:02.391Z,30.23
2019-04-07T09:51:41.402Z,31.75
2019-04-07T09:54:19.196Z,30.37
2019-04-07T09:56:51.954Z,30.97
2019-04-07T09:59:22.891Z,37.63
2019-04-07T10:01:59.497Z,33.73
2019-04-07T10:04:31.100Z,35.85
2019-04-07T10:07:01.550Z,33.28
2019-04-07T10:09:41.286Z,36.63
2019-04-07T10:12:11.772Z,42.25
2019-04-07T10:14:58.295Z,39.65
2019-04-07T10:17:38.430Z,38.08
2019-04-07T10:20:14.884Z,36.63
2019-04-07T10:23:01.864Z,33.90
2019-04-07T10:25:44.561Z,37.23
2019-04-07T10:28:15.013Z,35.43
2019-04-07T10:30:45.972Z,35.87
2019-04-07T10:33:33.568Z,36.53
2019-04-07T10:36:20.554Z,39.47
2019-04-07T10:38:51.246Z,30.27
2019-04-07T10:41:21.761Z,34.43
2019-04-07T10:43:52.581Z,37.17
2019-04-07T10:46:38.565Z,36.70
2019-04-07T10:49:25.223Z,36.00
2019-04-07T10:52:02.922Z,34.37
2019-04-07T10:54:42.680Z,38.77
2019-04-07T10:57:15.758Z,38.50
2019-04-07T10:59:49.283Z,42.10
2019-04-07T11:02:35.060Z,37.73
2019-04-07T11:05:22.860Z,36.20
2019-04-07T11:08:10.565Z,39.93
2019-04-07T11:10:56.420Z,37.63
2019-04-07T11:13:42.284Z,33.30
2019-04-07T11:16:18.737Z,39.03
2019-04-07T11:19:07.801Z,36.63
2019-04-07T11:21:56.643Z,35.13
2019-04-07T11:24:43.325Z,32.07
2019-04-07T11:27:31.112Z,33.67
2019-04-07T11:30:05.115Z,40.37
2019-04-07T11:32:35.922Z,39.67
2019-04-07T11:35:17.450Z,37.83
2019-04-07T11:37:48.479Z,38.17
2019-04-07T11:40:22.655Z,36.13
2019-04-07T11:42:55.922Z,35.30
2019-04-07T11:45:26.953Z,34.77
2019-04-07T11:47:58.072Z,38.37
2019-04-07T11:50:28.649Z,33.97
2019-04-07T11:53:01.984Z,38.47
2019-04-07T11:55:35.326Z,34.70
2019-04-07T11:58:17.731Z,36.87
2019-04-07T12:00:55.645Z,37.33
2019-04-07T12:03:41.792Z,36.30
2019-04-07T12:06:19.177Z,38.40
2019-04-07T12:09:02.232Z,32.90
2019-04-07T12:11:49.371Z,36.60
2019-04-07T12:14:25.917Z,37.77
2019-04-07T12:16:58.473Z,42.40
2019-04-07T12:19:32.076Z,35.57
2019-04-07T12:22:12.285Z,36.13
2019-04-07T12:24:40.209Z,34.60
2019-04-07T12:27:27.036Z,36.50
2019-04-07T12:30:10.080Z,30.83
2019-04-07T12:32:43.493Z,34.37
2019-04-07T12:35:15.589Z,32.50
2019-04-07T12:37:49.214Z,33.07
2019-04-07T12:40:32.295Z,36.30
2019-04-07T12:43:12.274Z,33.20
2019-04-07T12:45:56.819Z,34.27
2019-04-07T12:48:36.296Z,31.87
2019-04-07T12:51:09.791Z,31.20
2019-04-07T12:53:43.364Z,34.20
2019-04-07T12:56:13.842Z,32.80
2019-04-07T12:58:50.599Z,29.37
2019-04-07T13:01:33.709Z,32.80
2019-04-07T13:04:23.279Z,29.93
2019-04-07T13:07:03.496Z,31.57
2019-04-07T13:09:37.103Z,30.03
2019-04-07T13:12:07.694Z,28.97
2019-04-07T13:14:40.029Z,33.03
2019-04-07T13:17:34.231Z,33.07
2019-04-07T13:20:06.297Z,34.73
2019-04-07T13:22:53.182Z,35.80
2019-04-07T13:25:24.350Z,31.57
2019-04-07T13:28:01.438Z,33.00
2019-04-07T13:30:48.828Z,36.03
2019-04-07T13:33:26.421Z,37.37
2019-04-07T13:36:10.379Z,33.97
2019-04-07T13:38:41.475Z,27.57
2019-04-07T13:41:38.658Z,34.37
2019-04-07T13:44:07.149Z,30.93
2019-04-07T13:46:51.605Z,33.30
2019-04-07T13:49:38.067Z,31.37
2019-04-07T13:52:11.868Z,30.93
2019-04-07T13:54:51.348Z,29.63
2019-04-07T13:57:27.627Z,27.57
2019-04-07T14:00:15.965Z,33.60
2019-04-07T14:02:46.341Z,28.67
2019-04-07T14:05:16.886Z,30.30
2019-04-07T14:08:00.097Z,34.83
2019-04-07T14:10:36.964Z,25.90
2019-04-07T14:13:21.010Z,32.63
2019-04-07T14:16:04.014Z,32.47
2019-04-07T14:18:49.035Z,28.93
2019-04-07T14:21:18.638Z,29.83
2019-04-07T14:24:08.189Z,28.47
2019-04-07T14:26:42.400Z,27.90
2019-04-07T14:29:29.202Z,31.30
2019-04-07T14:32:00.856Z,27.60
2019-04-07T14:34:31.612Z,29.97
2019-04-07T14:37:09.720Z,25.03
2019-04-07T14:39:40.398Z,30.33
2019-04-07T14:42:17.651Z,27.47
2019-04-07T14:44:54.523Z,29.10
2019-04-07T14:47:43.601Z,28.60
2019-04-07T14:50:17.279Z,31.17
2019-04-07T14:52:48.287Z,25.43
2019-04-07T14:55:19.495Z,25.63
2019-04-07T14:57:50.240Z,26.47
2019-04-07T15:00:38.621Z,25.50
2019-04-07T15:03:08.151Z,52.03
2019-04-07T15:05:38.814Z,26.67
2019-04-07T15:08:12.349Z,25.23
2019-04-07T15:10:46.251Z,26.57
2019-04-07T15:13:23.856Z,28.33
2019-04-07T15:15:51.435Z,28.20
2019-04-07T15:18:21.456Z,29.67
2019-04-07T15:20:50.570Z,26.10
2019-04-07T15:23:19.835Z,30.07
2019-04-07T15:25:49.447Z,28.43
2019-04-07T15:28:19.460Z,23.77
2019-04-07T15:30:49.493Z,24.83
2019-04-07T15:33:18.888Z,27.67
2019-04-07T15:35:49.444Z,27.70
2019-04-07T15:38:20.423Z,29.03
2019-04-07T15:40:49.337Z,24.23
2019-04-07T15:43:19.082Z,29.10
2019-04-07T15:45:48.724Z,24.60
2019-04-07T15:48:17.565Z,26.97
2019-04-07T15:50:46.356Z,25.50
2019-04-07T15:53:15.651Z,29.00
2019-04-07T15:55:50.953Z,32.03
2019-04-07T15:58:16.964Z,26.70
2019-04-07T16:00:46.191Z,27.63
2019-04-07T16:03:16.580Z,29.93
2019-04-07T16:05:46.471Z,28.53
2019-04-07T16:08:16.129Z,26.90
2019-04-07T16:10:45.317Z,26.60
2019-04-07T16:13:14.292Z,26.77
2019-04-07T16:15:45.239Z,28.90
2019-04-07T16:18:13.388Z,26.20
2019-04-07T16:20:43.151Z,25.17
2019-04-07T16:23:12.810Z,27.30
2019-04-07T16:25:42.610Z,27.00
2019-04-07T16:28:13.624Z,33.27
2019-04-07T16:30:41.802Z,30.20
2019-04-07T16:33:11.112Z,27.87
2019-04-07T16:35:39.944Z,32.43
2019-04-07T16:38:09.530Z,28.23
2019-04-07T16:40:40.438Z,29.63
2019-04-07T16:43:14.463Z,31.17
2019-04-07T16:45:43.910Z,24.23
2019-04-07T16:48:10.813Z,28.37
2019-04-07T16:50:39.861Z,32.37
2019-04-07T16:53:09.216Z,31.23
2019-04-07T16:55:41.605Z,34.60
2019-04-07T16:58:11.699Z,38.30
2019-04-07T17:00:43.527Z,32.67
2019-04-07T17:03:13.183Z,34.73
2019-04-07T17:05:43.062Z,37.57
2019-04-07T17:08:12.881Z,38.70
2019-04-07T17:10:41.840Z,34.67
2019-04-07T17:13:18.602Z,34.43
2019-04-07T17:15:42.884Z,33.03
2019-04-07T17:18:55.400Z,40.83
2019-04-07T17:21:22.832Z,41.47
2019-04-07T17:23:55.361Z,39.07
2019-04-07T17:26:23.812Z,39.07
2019-04-07T17:28:55.596Z,51.07
2019-04-07T17:31:23.992Z,38.80
2019-04-07T17:33:53.972Z,35.03
2019-04-07T17:36:23.927Z,34.57
2019-04-07T17:38:58.362Z,42.90
2019-04-07T17:41:28.721Z,44.10
2019-04-07T17:44:05.896Z,50.07
2019-04-07T17:46:55.828Z,44.80
2019-04-07T17:49:30.958Z,40.23
2019-04-07T17:52:22.133Z,39.20
2019-04-07T17:58:10.500Z,48.17
2019-04-07T18:00:56.485Z,50.13
2019-04-07T18:03:30.255Z,52.90
2019-04-07T18:06:03.851Z,52.47
2019-04-07T18:08:43.513Z,47.07
2019-04-07T18:11:25.175Z,54.53
2019-04-07T18:14:08.874Z,65.03
2019-04-07T18:16:46.159Z,48.93
2019-04-07T18:19:34.797Z,55.13
2019-04-07T18:22:24.528Z,71.10
2019-04-07T18:24:55.685Z,67.00
2019-04-07T18:27:30.720Z,76.83
2019-04-07T18:30:18.476Z,71.50
2019-04-07T18:33:01.597Z,61.03
2019-04-07T18:35:36.604Z,70.03
2019-04-07T18:38:11.428Z,72.10
2019-04-07T18:41:01.655Z,105.73
2019-04-07T18:43:50.738Z,95.43
2019-04-07T18:46:32.399Z,89.57
2019-04-07T18:49:04.856Z,92.20
2019-04-07T18:51:40.218Z,74.03
2019-04-07T18:54:26.916Z,65.73
2019-04-07T18:57:10.562Z,87.33
2019-04-07T18:59:42.117Z,143.40
2019-04-07T19:02:16.562Z,121.97
2019-04-07T19:05:03.848Z,115.80
2019-04-07T19:07:34.651Z,86.07
2019-04-07T19:10:16.468Z,87.43
2019-04-07T19:12:41.111Z,78.20
2019-04-07T19:15:28.191Z,82.93
2019-04-07T19:18:02.968Z,69.77
2019-04-07T19:20:37.229Z,81.37
2019-04-07T19:23:08.635Z,78.57
2019-04-07T19:25:57.762Z,100.40
2019-04-07T19:28:36.925Z,91.10
2019-04-07T19:31:17.486Z,95.67
2019-04-07T19:33:56.638Z,106.30
2019-04-07T19:36:36.884Z,118.40
2019-04-07T19:39:11.169Z,162.20
2019-04-07T19:41:41.877Z,172.77
2019-04-07T19:44:34.858Z,148.33
2019-04-07T19:46:59.674Z,147.43
2019-04-07T19:49:28.806Z,127.47
2019-04-07T19:52:02.333Z,140.97
2019-04-07T19:54:31.508Z,156.53
2019-04-07T19:57:14.126Z,149.80
2019-04-07T20:00:00.489Z,160.93
2019-04-07T20:02:35.786Z,227.67
2019-04-07T20:05:06.092Z,225.13
2019-04-07T20:07:52.523Z,236.27
2019-04-07T20:10:32.267Z,249.93
2019-04-07T20:13:11.325Z,188.67
2019-04-07T20:15:43.014Z,190.67
2019-04-07T20:18:16.602Z,178.63
2019-04-07T20:21:03.321Z,189.90
2019-04-07T20:23:52.234Z,205.23
2019-04-07T20:26:22.780Z,194.90
2019-04-07T20:29:10.730Z,194.23
2019-04-07T20:31:58.052Z,225.10
2019-04-07T20:34:33.998Z,175.87
2019-04-07T20:37:07.045Z,177.43
2019-04-07T20:39:41.192Z,192.20
2019-04-07T20:42:15.943Z,171.87
2019-04-07T20:45:02.730Z,160.97
2019-04-07T20:47:26.443Z,159.20
2019-04-07T20:50:02.886Z,167.17
2019-04-07T20:52:34.115Z,155.13
2019-04-07T20:55:06.851Z,134.37
2019-04-07T20:57:39.466Z,152.90
2019-04-07T21:00:26.754Z,132.63
2019-04-07T21:03:14.373Z,144.73
2019-04-07T21:05:46.272Z,148.90
2019-04-07T21:08:17.719Z,132.30
2019-04-07T21:10:49.640Z,137.73
2019-04-07T21:13:24.776Z,129.30
2019-04-07T21:15:55.649Z,111.73
2019-04-07T21:18:42.492Z,114.83
2019-04-07T21:21:25.621Z,120.17
2019-04-07T21:24:17.414Z,106.47
2019-04-07T21:26:46.610Z,110.30
2019-04-07T21:29:35.269Z,106.07
2019-04-07T21:32:12.237Z,99.03
2019-04-07T21:34:49.348Z,96.97
2019-04-07T21:37:23.044Z,91.13
2019-04-07T21:40:02.813Z,88.33
2019-04-07T21:45:47.361Z,71.30
2019-04-07T21:48:33.511Z,65.27
2019-04-07T21:51:04.441Z,64.47
2019-04-07T21:53:34.915Z,66.23
2019-04-07T21:56:20.246Z,68.70
2019-04-07T21:59:08.763Z,70.07
2019-04-07T22:01:39.904Z,73.83
2019-04-07T22:04:25.298Z,92.17
2019-04-07T22:07:00.217Z,104.80
2019-04-07T22:09:31.032Z,94.43
2019-04-07T22:12:00.571Z,92.63
2019-04-07T22:14:30.486Z,96.87
2019-04-07T22:17:02.449Z,98.67
2019-04-07T22:19:31.897Z,89.37
2019-04-07T22:22:02.445Z,91.30
2019-04-07T22:24:34.718Z,92.43
2019-04-07T22:27:05.321Z,109.93
2019-04-07T22:29:34.981Z,97.50
2019-04-07T22:32:05.327Z,93.50
2019-04-07T22:34:35.567Z,92.90
2019-04-07T22:37:05.015Z,88.30
2019-04-07T22:39:33.882Z,92.60
2019-04-07T22:42:02.629Z,95.10
2019-04-07T22:44:31.719Z,93.80
2019-04-07T22:47:00.911Z,99.53
2019-04-07T22:49:32.167Z,105.67
2019-04-07T22:52:01.274Z,90.33
2019-04-07T22:54:31.232Z,98.03
2019-04-07T22:57:00.696Z,95.80
2019-04-07T22:59:30.199Z,115.93
2019-04-07T23:01:59.871Z,114.53
2019-04-07T23:04:29.990Z,111.23
2019-04-07T23:06:59.234Z,113.13
2019-04-07T23:09:28.030Z,106.40
2019-04-07T23:11:56.803Z,105.70
2019-04-07T23:14:25.691Z,100.53
2019-04-07T23:16:54.446Z,103.50
2019-04-07T23:19:23.686Z,111.03
2019-04-07T23:21:53.368Z,115.97
2019-04-07T23:24:22.229Z,104.03
2019-04-07T23:26:51.073Z,114.53
2019-04-07T23:29:19.952Z,117.83
2019-04-07T23:31:48.639Z,115.50
2019-04-07T23:34:17.377Z,112.23
2019-04-07T23:36:46.099Z,107.90
2019-04-07T23:39:15.254Z,108.90
2019-04-07T23:41:44.210Z,83.10
2019-04-07T23:44:13.580Z,91.00
2019-04-07T23:46:42.334Z,104.47
2019-04-07T23:49:11.819Z,111.00
2019-04-07T23:51:41.406Z,115.27
2019-04-07T23:54:11.835Z,118.97
2019-04-07T23:56:42.203Z,111.53
2019-04-07T23:59:11.639Z,107.83
